Time;durP1;ratioP1;P1;durP2;ratioP2;P2;SDS_P1;SDS_P2;PMS_P1;PMS_P2;Temp;Humidity;BMP_temperature;BMP_pressure;BME280_temperature;BME280_humidity;BME280_pressure;Samples;Min_cycle;Max_cycle;Signal;HPM_P1;HPM_P2
2021/08/10 00:01:10;;;;;;;4.78;2.08;;;;;;;17.04;84.50;100640.25;5088567;28;20499;-77
2021/08/10 00:03:56;;;;;;;4.93;2.22;;;;;;;17.03;84.70;100642.25;5087993;28;20038;-78
2021/08/10 00:06:42;;;;;;;5.38;2.20;;;;;;;17.01;83.83;100641.75;5082772;28;20055;-78
2021/08/10 00:09:27;;;;;;;4.55;1.98;;;;;;;17.02;84.86;100635.00;5104901;28;20043;-78
2021/08/10 00:12:13;;;;;;;3.67;2.25;;;;;;;17.01;84.68;100633.34;5089534;27;20058;-77
2021/08/10 00:14:59;;;;;;;5.10;1.88;;;;;;;17.01;84.61;100627.72;5080260;28;20101;-82
2021/08/10 00:17:45;;;;;;;3.50;1.77;;;;;;;16.98;84.83;100628.41;5109648;28;20028;-78
2021/08/10 00:20:31;;;;;;;4.53;1.90;;;;;;;16.98;84.90;100639.63;5080923;28;20119;-78
2021/08/10 00:23:17;;;;;;;3.45;1.90;;;;;;;16.97;85.35;100629.56;5096559;28;20507;-78
2021/08/10 00:26:03;;;;;;;3.97;2.13;;;;;;;16.96;85.21;100627.91;5115307;28;20038;-77
2021/08/10 00:28:49;;;;;;;3.22;2.10;;;;;;;16.94;84.67;100621.81;5098326;28;20065;-77
2021/08/10 00:31:34;;;;;;;6.05;2.03;;;;;;;16.94;84.92;100619.00;5113013;28;20031;-78
2021/08/10 00:34:20;;;;;;;4.57;2.33;;;;;;;16.93;85.12;100623.78;5080068;28;20031;-78
2021/08/10 00:37:06;;;;;;;4.63;2.22;;;;;;;16.94;85.25;100622.63;5101927;28;20127;-77
2021/08/10 00:39:52;;;;;;;6.65;2.42;;;;;;;16.92;84.70;100619.34;5082541;28;20088;-78
2021/08/10 00:42:38;;;;;;;5.85;2.28;;;;;;;16.91;84.86;100623.31;5072612;28;20027;-78
2021/08/10 00:45:24;;;;;;;5.90;2.30;;;;;;;16.91;84.22;100628.91;5079548;28;20035;-77
2021/08/10 00:48:10;;;;;;;4.30;2.10;;;;;;;16.91;85.01;100631.72;5099652;28;20027;-77
2021/08/10 00:50:56;;;;;;;7.22;2.28;;;;;;;16.88;84.94;100620.31;5090550;28;20040;-78
2021/08/10 00:53:42;;;;;;;5.13;2.17;;;;;;;16.88;86.46;100620.31;5071509;28;21689;-77
2021/08/10 00:56:28;;;;;;;6.20;2.28;;;;;;;16.88;85.40;100625.94;5076020;28;20051;-77
2021/08/10 00:59:15;;;;;;;6.75;2.40;;;;;;;16.85;85.75;100618.19;5083550;28;20063;-78
2021/08/10 01:02:04;;;;;;;4.25;1.85;;;;;;;16.85;85.60;100621.81;5093091;28;20117;-77
2021/08/10 01:04:50;;;;;;;5.95;2.35;;;;;;;16.85;85.32;100619.00;5075997;28;20058;-77
2021/08/10 01:07:53;;;;;;;4.68;2.03;;;;;;;16.83;85.53;100624.16;5077636;28;20028;-77
2021/08/10 01:10:43;;;;;;;5.55;2.47;;;;;;;16.82;85.35;100622.47;5066679;28;20036;-76
2021/08/10 01:13:35;;;;;;;5.15;2.45;;;;;;;16.83;85.99;100617.72;5092706;28;20496;-77
2021/08/10 01:16:33;;;;;;;4.25;2.22;;;;;;;16.81;85.87;100617.22;5064035;28;20060;-77
2021/08/10 01:19:21;;;;;;;4.20;2.30;;;;;;;16.80;86.13;100610.78;5077859;28;20080;-77
2021/08/10 01:22:08;;;;;;;2.83;1.92;;;;;;;16.81;84.80;100617.22;5092373;28;20032;-76
2021/08/10 01:25:24;;;;;;;7.68;3.50;;;;;;;16.75;85.99;100611.75;5080305;28;20119;-77
2021/08/10 01:28:13;;;;;;;7.20;2.33;;;;;;;16.76;85.94;100604.16;5081280;28;20089;-77
2021/08/10 01:30:59;;;;;;;4.10;2.60;;;;;;;16.74;85.38;100612.06;5092583;28;20032;-77
2021/08/10 01:33:46;;;;;;;4.10;2.25;;;;;;;16.74;85.46;100607.31;5092924;28;20035;-77
2021/08/10 01:36:32;;;;;;;7.50;2.50;;;;;;;16.72;85.96;100604.00;5064515;28;20032;-77
2021/08/10 01:39:18;;;;;;;6.80;2.28;;;;;;;16.73;86.15;100607.63;5050981;28;20046;-77
2021/08/10 01:42:04;;;;;;;5.38;2.40;;;;;;;16.70;86.22;100608.31;5069669;28;20115;-77
2021/08/10 01:44:49;;;;;;;4.97;2.65;;;;;;;16.69;86.37;100604.69;5080371;28;20028;-77
2021/08/10 01:47:35;;;;;;;6.47;2.30;;;;;;;16.68;86.28;100600.22;5057440;28;20040;-78
2021/08/10 01:50:22;;;;;;;6.57;2.42;;;;;;;16.70;85.96;100602.69;5078434;28;20044;-78
2021/08/10 01:53:08;;;;;;;7.45;2.63;;;;;;;16.69;85.69;100603.88;5079752;28;20115;-78
2021/08/10 01:55:57;;;;;;;4.40;2.17;;;;;;;16.67;85.94;100595.78;5076607;28;20127;-79
2021/08/10 01:58:43;;;;;;;7.75;3.10;;;;;;;16.69;86.58;100593.47;5088627;28;20062;-77
2021/08/10 02:01:29;;;;;;;8.38;2.63;;;;;;;16.67;85.35;100592.97;5052902;28;20125;-77
2021/08/10 02:04:16;;;;;;;10.10;2.38;;;;;;;16.65;85.94;100589.66;5071426;28;20068;-77
2021/08/10 02:07:02;;;;;;;5.45;2.65;;;;;;;16.66;86.26;100588.53;5077976;28;20118;-78
2021/08/10 02:09:48;;;;;;;7.07;2.83;;;;;;;16.67;86.42;100592.16;5093992;28;20088;-78
2021/08/10 02:12:36;;;;;;;6.57;2.78;;;;;;;16.63;86.82;100589.19;5088187;28;20111;-77
2021/08/10 02:15:22;;;;;;;5.53;2.55;;;;;;;16.62;86.55;100581.94;5099921;28;20093;-77
2021/08/10 02:18:08;;;;;;;5.05;2.70;;;;;;;16.62;86.64;100581.94;5112759;28;20032;-77
2021/08/10 02:20:54;;;;;;;6.53;3.03;;;;;;;16.62;87.06;100576.31;5113649;28;20027;-75
2021/08/10 02:23:40;;;;;;;6.60;2.63;;;;;;;16.62;86.09;100581.09;5101260;28;20372;-78
2021/08/10 02:26:26;;;;;;;8.85;3.40;;;;;;;16.62;86.70;100583.91;5115229;28;20031;-78
2021/08/10 02:29:12;;;;;;;7.65;2.55;;;;;;;16.61;86.46;100585.91;5092003;28;20114;-78
2021/08/10 02:31:58;;;;;;;10.27;3.03;;;;;;;16.59;86.33;100588.19;5083470;28;20036;-77
2021/08/10 02:34:44;;;;;;;5.45;2.75;;;;;;;16.60;86.31;100589.03;5083140;28;20512;-78
2021/08/10 02:37:31;;;;;;;6.30;2.53;;;;;;;16.59;86.36;100576.97;5091209;28;20028;-77
2021/08/10 02:40:18;;;;;;;8.98;3.17;;;;;;;16.58;86.99;100582.94;5080888;28;20039;-78
2021/08/10 02:43:04;;;;;;;5.28;2.40;;;;;;;16.58;86.95;100580.97;5088930;28;20035;-78
2021/08/10 02:45:49;;;;;;;6.28;2.88;;;;;;;16.60;86.81;100583.41;5084842;27;20031;-78
2021/08/10 02:48:35;;;;;;;7.43;2.83;;;;;;;16.57;86.52;100582.09;5083193;28;20124;-78
2021/08/10 02:51:21;;;;;;;8.23;3.35;;;;;;;16.56;87.01;100583.25;5085079;28;20070;-78
2021/08/10 02:54:07;;;;;;;5.55;3.00;;;;;;;16.55;87.13;100581.63;5095153;28;20503;-77
2021/08/10 02:57:00;;;;;;;7.40;3.00;;;;;;;16.54;86.61;100580.78;5079198;28;20467;-78
2021/08/10 02:59:52;;;;;;;8.90;3.03;;;;;;;16.53;86.68;100589.53;5097057;28;20034;-82
2021/08/10 03:02:41;;;;;;;4.90;3.15;;;;;;;16.52;87.48;100587.91;5075145;28;20563;-81
2021/08/10 03:05:29;;;;;;;6.45;3.20;;;;;;;16.48;87.56;100590.53;5102760;27;20035;-76
2021/08/10 03:08:23;;;;;;;5.57;2.70;;;;;;;16.47;87.22;100582.47;5115192;28;20028;-77
2021/08/10 03:11:09;;;;;;;9.93;3.55;;;;;;;16.46;87.78;100589.22;5074858;28;20036;-76
2021/08/10 03:13:54;;;;;;;9.40;3.05;;;;;;;16.44;87.12;100595.16;5100415;28;20377;-76
2021/08/10 03:16:42;;;;;;;8.32;2.95;;;;;;;16.44;86.86;100594.34;5093155;28;20032;-77
2021/08/10 03:19:27;;;;;;;6.97;3.13;;;;;;;16.43;86.81;100595.47;5077185;28;20073;-77
2021/08/10 03:22:13;;;;;;;8.60;2.97;;;;;;;16.41;85.86;100595.81;5114951;28;20483;-77
2021/08/10 03:25:00;;;;;;;6.95;2.75;;;;;;;16.38;86.57;100590.88;5087738;28;20046;-77
2021/08/10 03:27:46;;;;;;;5.68;3.30;;;;;;;16.35;86.53;100590.69;5100146;28;20064;-79
2021/08/10 03:30:32;;;;;;;10.68;3.50;;;;;;;16.34;86.25;100592.69;5063768;28;20540;-78
2021/08/10 03:33:18;;;;;;;5.75;2.58;;;;;;;16.33;86.69;100593.84;5075047;28;20555;-78
2021/08/10 03:36:04;;;;;;;7.55;3.20;;;;;;;16.29;86.63;100596.47;5084671;28;20083;-78
2021/08/10 03:38:50;;;;;;;5.93;2.90;;;;;;;16.27;86.29;100590.41;5093739;28;20395;-78
2021/08/10 03:41:36;;;;;;;8.65;3.10;;;;;;;16.24;87.13;100593.00;5088558;28;20032;-76
2021/08/10 03:44:21;;;;;;;6.63;3.15;;;;;;;16.22;86.61;100584.94;5116482;28;20063;-77
2021/08/10 03:47:11;;;;;;;6.70;2.55;;;;;;;16.17;86.03;100585.13;5082790;28;20488;-76
2021/08/10 03:49:57;;;;;;;5.97;3.25;;;;;;;16.17;87.17;100590.72;5095134;28;20122;-77
2021/08/10 03:52:42;;;;;;;6.90;3.28;;;;;;;16.13;87.92;100591.69;5100003;28;20036;-77
2021/08/10 03:55:28;;;;;;;8.73;2.30;;;;;;;16.13;87.08;100589.75;5048290;28;20045;-77
2021/08/10 03:58:14;;;;;;;5.53;3.10;;;;;;;16.14;86.85;100582.16;5066611;28;20039;-78
2021/08/10 04:01:01;;;;;;;6.40;3.00;;;;;;;16.12;87.39;100576.88;5066850;28;20047;-77
2021/08/10 04:03:47;;;;;;;6.43;2.80;;;;;;;16.12;87.43;100579.66;5043631;28;20400;-76
2021/08/10 04:06:32;;;;;;;7.55;2.90;;;;;;;16.10;87.37;100579.16;5096167;28;20036;-78
2021/08/10 04:09:21;;;;;;;4.50;2.55;;;;;;;16.09;87.62;100578.34;5082136;28;20118;-77
2021/08/10 04:12:08;;;;;;;6.82;3.42;;;;;;;16.09;87.18;100583.94;5067174;28;20036;-78
2021/08/10 04:14:54;;;;;;;5.57;3.08;;;;;;;16.11;87.94;100580.84;5065802;28;20028;-79
2021/08/10 04:17:39;;;;;;;7.82;3.35;;;;;;;16.08;88.56;100582.31;5082810;28;20059;-75
2021/08/10 04:20:25;;;;;;;6.90;3.42;;;;;;;16.11;88.16;100575.22;5070323;28;20084;-76
2021/08/10 04:23:11;;;;;;;6.82;3.17;;;;;;;16.09;88.34;100583.94;5064604;28;20119;-76
2021/08/10 04:25:57;;;;;;;7.38;3.30;;;;;;;16.09;87.45;100583.94;5061065;28;20445;-78
2021/08/10 04:28:43;;;;;;;7.13;3.00;;;;;;;16.13;87.77;100578.53;5053772;28;20032;-79
2021/08/10 04:31:28;;;;;;;7.05;3.35;;;;;;;16.08;87.88;100581.50;5086450;28;20046;-76
2021/08/10 04:34:14;;;;;;;10.73;3.75;;;;;;;16.10;88.32;100576.38;5074220;28;20066;-77
2021/08/10 04:37:00;;;;;;;8.85;3.45;;;;;;;16.10;88.58;100579.16;5077010;28;20138;-78
2021/08/10 04:39:46;;;;;;;9.75;3.78;;;;;;;16.09;89.21;100571.94;5068292;28;20028;-79
2021/08/10 04:42:34;;;;;;;7.43;3.05;;;;;;;16.10;88.08;100584.78;5053508;28;20500;-76
2021/08/10 04:45:20;;;;;;;7.18;3.08;;;;;;;16.13;87.83;100588.91;5081855;28;20032;-76
2021/08/10 04:48:07;;;;;;;7.60;2.90;;;;;;;16.10;87.58;100581.97;5087655;28;20038;-78
2021/08/10 04:50:53;;;;;;;6.30;2.85;;;;;;;16.11;87.89;100580.84;5063533;28;20028;-77
2021/08/10 04:53:39;;;;;;;5.35;3.00;;;;;;;16.12;88.00;100578.84;5063829;28;20032;-79
2021/08/10 04:56:25;;;;;;;9.98;3.10;;;;;;;16.11;88.36;100586.44;5093940;28;20055;-79
2021/08/10 04:59:11;;;;;;;8.43;3.33;;;;;;;16.11;88.63;100591.22;5095093;28;20038;-79
2021/08/10 05:01:57;;;;;;;7.60;3.42;;;;;;;16.09;88.19;100597.97;5088637;28;20032;-77
2021/08/10 05:04:43;;;;;;;8.35;3.40;;;;;;;16.10;87.84;100598.78;5114036;28;20074;-77
2021/08/10 05:07:29;;;;;;;6.55;2.80;;;;;;;16.09;88.93;100597.97;5106060;28;20051;-78
2021/08/10 05:10:15;;;;;;;7.85;3.40;;;;;;;16.11;88.18;100594.03;5110961;28;20096;-78
2021/08/10 05:13:00;;;;;;;7.82;3.40;;;;;;;16.10;89.07;100595.97;5098115;28;20084;-77
2021/08/10 05:15:46;;;;;;;11.45;3.38;;;;;;;16.09;88.72;100597.97;5104024;28;20162;-77
2021/08/10 05:18:32;;;;;;;7.32;3.47;;;;;;;16.09;89.08;100597.97;5076414;28;20060;-77
2021/08/10 05:21:19;;;;;;;8.25;3.30;;;;;;;16.09;88.00;100591.53;5092916;28;20091;-78
2021/08/10 05:24:05;;;;;;;10.43;3.33;;;;;;;16.10;88.46;100593.19;5097624;28;20491;-78
2021/08/10 05:26:51;;;;;;;7.50;3.03;;;;;;;16.11;88.73;100582.81;5081422;28;20125;-78
2021/08/10 05:29:37;;;;;;;6.80;3.47;;;;;;;16.12;88.46;100588.06;5114340;28;20066;-78
2021/08/10 05:32:22;;;;;;;7.60;3.40;;;;;;;16.12;88.56;100592.88;5109012;27;20038;-78
2021/08/10 05:35:08;;;;;;;6.63;3.22;;;;;;;16.12;88.55;100590.88;5135268;27;20126;-78
2021/08/10 05:37:54;;;;;;;7.30;3.17;;;;;;;16.12;87.67;100593.69;5129200;27;20495;-78
2021/08/10 05:40:40;;;;;;;10.35;3.55;;;;;;;16.11;88.44;100589.25;5105783;28;20031;-78
2021/08/10 05:43:26;;;;;;;9.15;3.30;;;;;;;16.11;88.86;100586.44;5112229;28;20035;-77
2021/08/10 05:46:12;;;;;;;7.55;3.40;;;;;;;16.13;89.89;100584.13;5112146;27;20030;-77
2021/08/10 05:48:59;;;;;;;6.88;3.28;;;;;;;16.15;89.39;100583.78;5123410;28;20034;-78
2021/08/10 05:51:44;;;;;;;7.93;3.38;;;;;;;16.14;89.01;100582.97;5106593;28;20031;-78
2021/08/10 05:54:30;;;;;;;11.10;3.40;;;;;;;16.13;88.84;100592.53;5099630;28;20075;-77
2021/08/10 05:57:16;;;;;;;5.72;3.20;;;;;;;16.14;88.83;100598.97;5130102;27;20043;-78
2021/08/10 06:00:02;;;;;;;4.72;2.78;;;;;;;16.15;88.94;100587.41;5111308;28;20106;-78
2021/08/10 06:02:48;;;;;;;8.93;2.80;;;;;;;16.17;88.67;100601.09;5103149;28;20043;-78
2021/08/10 06:05:34;;;;;;;7.43;3.40;;;;;;;16.16;90.65;100602.25;5126208;27;20039;-77
2021/08/10 06:08:19;;;;;;;9.38;3.50;;;;;;;16.17;90.48;100601.94;5111984;27;20042;-77
2021/08/10 06:11:05;;;;;;;8.90;3.80;;;;;;;16.19;90.04;100601.59;5116637;27;20042;-77
2021/08/10 06:13:51;;;;;;;11.55;4.00;;;;;;;16.23;90.26;100597.78;5123519;27;20031;-77
2021/08/10 06:16:37;;;;;;;8.05;3.25;;;;;;;16.24;89.40;100596.66;5092279;27;20067;-78
2021/08/10 06:19:23;;;;;;;7.22;3.15;;;;;;;16.27;88.88;100604.41;5135771;27;20035;-77
2021/08/10 06:22:09;;;;;;;6.18;2.70;;;;;;;16.31;88.42;100598.97;5134404;27;20099;-74
2021/08/10 06:24:55;;;;;;;7.75;3.28;;;;;;;16.35;88.22;100610.31;5133995;27;20506;-74
2021/08/10 06:27:41;;;;;;;8.13;3.20;;;;;;;16.40;88.61;100612.97;5122934;27;20083;-74
2021/08/10 06:30:26;;;;;;;8.25;3.40;;;;;;;16.43;88.62;100612.28;5132636;27;20111;-77
2021/08/10 06:33:12;;;;;;;8.00;3.30;;;;;;;16.47;89.05;100613.28;5120662;27;20382;-77
2021/08/10 06:35:58;;;;;;;6.32;3.25;;;;;;;16.49;89.76;100613.75;5111726;27;20032;-77
2021/08/10 06:38:44;;;;;;;6.97;3.63;;;;;;;16.53;89.79;100614.78;5107815;27;20046;-77
2021/08/10 06:41:30;;;;;;;8.57;3.92;;;;;;;16.53;90.44;100615.59;5113217;27;20034;-77
2021/08/10 06:44:15;;;;;;;8.27;3.40;;;;;;;16.56;90.28;100610.47;5103295;27;20095;-77
2021/08/10 06:47:01;;;;;;;7.80;3.30;;;;;;;16.60;90.28;100611.44;5105550;27;20031;-77
2021/08/10 06:49:47;;;;;;;8.02;3.40;;;;;;;16.63;89.84;100610.78;5106894;27;20548;-77
2021/08/10 06:52:33;;;;;;;9.45;3.00;;;;;;;16.65;89.56;100614.09;5095951;27;20054;-78
2021/08/10 06:55:19;;;;;;;7.65;3.58;;;;;;;16.68;89.23;100614.22;5119426;27;20092;-77
2021/08/10 06:58:05;;;;;;;8.80;3.47;;;;;;;16.71;89.95;100619.16;5101038;27;20131;-77
2021/08/10 07:00:51;;;;;;;5.15;3.10;;;;;;;16.78;90.14;100620.69;5109813;27;20027;-77
2021/08/10 07:03:36;;;;;;;8.23;3.33;;;;;;;16.81;89.24;100623.66;5126316;27;20034;-77
2021/08/10 07:06:22;;;;;;;6.03;3.00;;;;;;;16.87;88.81;100624.31;5118832;27;20108;-77
2021/08/10 07:09:08;;;;;;;6.03;2.90;;;;;;;16.91;88.86;100628.06;5106658;27;20031;-77
2021/08/10 07:11:54;;;;;;;6.75;2.88;;;;;;;16.96;87.72;100630.69;5121126;27;20095;-77
2021/08/10 07:14:40;;;;;;;7.70;2.83;;;;;;;17.01;87.45;100616.50;5122121;27;20115;-77
2021/08/10 07:17:25;;;;;;;7.93;3.20;;;;;;;17.04;88.23;100627.06;5109274;27;20114;-77
2021/08/10 07:20:12;;;;;;;9.07;3.00;;;;;;;17.08;89.11;100619.63;5119630;27;20476;-77
2021/08/10 07:22:57;;;;;;;5.68;2.90;;;;;;;17.14;88.60;100626.69;5104235;27;20460;-78
2021/08/10 07:25:43;;;;;;;9.27;3.20;;;;;;;17.19;88.21;100626.50;5110662;27;20027;-77
2021/08/10 07:28:29;;;;;;;10.38;3.13;;;;;;;17.24;87.45;100625.50;5096020;28;20067;-77
2021/08/10 07:31:15;;;;;;;5.30;2.80;;;;;;;17.28;87.37;100636.88;5127318;27;20088;-77
2021/08/10 07:34:01;;;;;;;6.85;3.00;;;;;;;17.33;87.25;100631.09;5105260;27;20050;-77
2021/08/10 07:36:47;;;;;;;6.18;2.72;;;;;;;17.37;87.93;100634.84;5109242;27;20114;-78
2021/08/10 07:39:32;;;;;;;5.20;2.50;;;;;;;17.42;87.17;100631.88;5103881;27;20035;-77
2021/08/10 07:42:18;;;;;;;8.57;2.83;;;;;;;17.47;86.77;100633.66;5118728;27;20552;-77
2021/08/10 07:45:05;;;;;;;7.47;2.50;;;;;;;17.53;86.63;100632.31;5108431;27;20095;-77
2021/08/10 07:47:51;;;;;;;8.23;2.50;;;;;;;17.57;86.74;100639.69;5108235;27;20046;-72
2021/08/10 07:50:37;;;;;;;11.52;3.45;;;;;;;17.64;90.80;100634.41;5122158;27;20050;-71
2021/08/10 07:53:23;;;;;;;8.77;3.10;;;;;;;17.68;88.45;100639.34;5119465;27;20526;-71
2021/08/10 07:56:11;;;;;;;5.38;2.53;;;;;;;17.74;88.59;100637.97;5133541;27;20043;-71
2021/08/10 07:58:57;;;;;;;7.22;3.47;;;;;;;17.79;88.88;100646.22;5136019;27;20111;-71
2021/08/10 08:01:43;;;;;;;6.32;2.80;;;;;;;17.86;88.57;100646.53;5108049;28;20031;-71
2021/08/10 08:04:29;;;;;;;7.03;2.47;;;;;;;17.91;89.03;100648.31;5126487;27;20442;-77
2021/08/10 08:07:15;;;;;;;6.63;2.65;;;;;;;17.96;89.26;100657.34;5088236;27;20110;-78
2021/08/10 08:10:01;;;;;;;4.85;2.40;;;;;;;18.00;89.88;100658.34;5113443;27;20035;-77
2021/08/10 08:12:46;;;;;;;6.95;2.88;;;;;;;18.05;89.45;100663.78;5103576;27;20039;-77
2021/08/10 08:15:34;;;;;;;7.95;2.80;;;;;;;18.09;89.84;100656.28;5088629;27;20028;-77
2021/08/10 08:18:21;;;;;;;8.38;2.75;;;;;;;18.12;89.53;100657.59;5105865;27;20035;-75
2021/08/10 08:21:07;;;;;;;4.75;2.85;;;;;;;18.17;88.45;100651.78;5118102;27;20123;-75
2021/08/10 08:23:52;;;;;;;5.00;2.45;;;;;;;18.22;87.82;100659.16;5120008;27;20035;-75
2021/08/10 08:26:38;;;;;;;5.32;2.63;;;;;;;18.26;86.47;100666.56;5100378;28;20035;-75
2021/08/10 08:29:24;;;;;;;5.32;2.33;;;;;;;18.34;86.19;100661.25;5090051;27;20118;-76
2021/08/10 08:32:10;;;;;;;5.85;2.45;;;;;;;18.40;85.88;100657.88;5103017;27;20043;-75
2021/08/10 08:34:55;;;;;;;4.38;2.30;;;;;;;18.49;85.55;100658.59;5117958;27;20038;-78
2021/08/10 08:37:41;;;;;;;5.28;2.53;;;;;;;18.58;86.20;100660.53;5095368;27;20023;-78
2021/08/10 08:40:27;;;;;;;6.75;2.60;;;;;;;18.68;85.01;100662.94;5116111;27;20038;-74
2021/08/10 08:43:13;;;;;;;6.07;1.90;;;;;;;18.82;84.44;100657.03;5134083;27;20088;-76
2021/08/10 08:45:59;;;;;;;6.47;2.15;;;;;;;18.97;85.96;100656.38;5102425;27;20039;-76
2021/08/10 08:48:46;;;;;;;6.05;2.28;;;;;;;19.10;86.10;100654.41;5099497;27;20035;-75
2021/08/10 08:51:31;;;;;;;4.53;2.05;;;;;;;19.24;85.82;100659.72;5097415;28;20534;-76
2021/08/10 08:54:17;;;;;;;7.55;2.85;;;;;;;19.36;85.47;100657.75;5086729;28;20104;-76
2021/08/10 08:57:03;;;;;;;6.65;2.15;;;;;;;19.48;85.60;100659.75;5100336;27;20031;-75
2021/08/10 08:59:49;;;;;;;4.53;2.10;;;;;;;19.61;85.60;100660.56;5080372;27;20454;-76
2021/08/10 09:02:35;;;;;;;5.03;2.30;;;;;;;19.75;83.92;100658.28;5093350;27;20038;-76
2021/08/10 09:05:21;;;;;;;5.20;2.03;;;;;;;19.89;84.44;100660.72;5104876;27;20476;-75
2021/08/10 09:08:29;;;;;;;5.63;1.65;;;;;;;20.04;83.29;100656.38;5134362;27;20031;-77
2021/08/10 09:11:17;;;;;;;3.55;1.75;;;;;;;20.18;81.09;100659.63;5130158;27;20042;-77
2021/08/10 09:14:03;;;;;;;4.03;1.58;;;;;;;20.34;82.05;100659.72;5103852;27;20095;-77
2021/08/10 09:17:15;;;;;;;5.00;1.70;;;;;;;20.49;81.83;100663.78;5104514;28;20035;-77
2021/08/10 09:20:04;;;;;;;4.90;1.40;;;;;;;20.62;81.38;100671.06;5117204;27;20080;-78
2021/08/10 09:22:54;;;;;;;3.10;1.40;;;;;;;20.73;81.48;100665.72;5091426;27;20039;-70
2021/08/10 09:25:40;;;;;;;4.03;1.60;;;;;;;20.86;81.64;100677.75;5116058;28;20023;-70
2021/08/10 09:28:26;;;;;;;6.97;1.63;;;;;;;20.95;80.90;100678.44;5136909;27;20046;-70
2021/08/10 09:31:40;;;;;;;5.32;1.40;;;;;;;21.04;81.00;100681.91;5104799;28;20110;-70
2021/08/10 09:34:28;;;;;;;7.45;1.67;;;;;;;21.11;81.94;100682.09;5133655;27;20038;-70
2021/08/10 09:37:15;;;;;;;4.15;1.80;;;;;;;21.19;81.34;100674.66;5121409;27;20038;-70
2021/08/10 09:40:10;;;;;;;3.00;1.20;;;;;;;21.29;81.22;100685.41;5137157;27;20027;-70
2021/08/10 09:43:18;;;;;;;5.15;1.60;;;;;;;21.41;80.57;100682.53;5103248;27;20035;-70
2021/08/10 09:46:11;;;;;;;3.85;1.48;;;;;;;21.54;81.03;100679.66;5139182;27;20058;-74
2021/08/10 09:48:57;;;;;;;4.57;1.23;;;;;;;21.66;81.25;100687.19;5136647;27;20474;-74
2021/08/10 09:51:47;;;;;;;2.92;1.13;;;;;;;21.75;79.74;100685.81;5109429;27;20035;-76
2021/08/10 09:54:33;;;;;;;2.58;1.27;;;;;;;21.88;79.95;100686.53;5107516;27;20430;-77
2021/08/10 09:57:19;;;;;;;4.53;1.40;;;;;;;21.99;78.76;100690.44;5103610;27;20466;-77
2021/08/10 10:00:05;;;;;;;3.38;1.20;;;;;;;22.08;78.86;100688.22;5122501;27;20046;-77
2021/08/10 10:02:52;;;;;;;3.38;1.15;;;;;;;22.21;78.67;100691.00;5106324;27;20031;-78
2021/08/10 10:05:41;;;;;;;3.25;1.20;;;;;;;22.29;79.01;100695.63;5094076;27;20049;-76
2021/08/10 10:08:27;;;;;;;4.60;1.33;;;;;;;22.36;77.06;100692.13;5124502;27;20039;-78
2021/08/10 10:11:14;;;;;;;2.30;1.08;;;;;;;22.45;77.10;100702.03;5127490;27;20040;-78
2021/08/10 10:14:00;;;;;;;3.25;1.30;;;;;;;22.53;77.83;100692.50;5119590;27;20519;-77
2021/08/10 10:16:48;;;;;;;3.13;1.50;;;;;;;22.61;77.00;100693.47;5093819;27;20069;-79
2021/08/10 10:19:35;;;;;;;4.32;1.60;;;;;;;22.68;76.82;100687.19;5095530;27;20676;-77
2021/08/10 10:22:22;;;;;;;1.83;1.00;;;;;;;22.78;76.92;100686.56;5091940;28;20038;-77
2021/08/10 10:25:08;;;;;;;4.53;1.48;;;;;;;22.85;76.54;100686.72;5089381;27;20384;-77
2021/08/10 10:27:55;;;;;;;2.28;0.90;;;;;;;22.96;77.07;100687.78;5089323;27;20039;-78
2021/08/10 10:30:44;;;;;;;2.50;1.10;;;;;;;23.09;76.96;100681.94;5090114;27;20028;-78
2021/08/10 10:33:30;;;;;;;4.13;0.90;;;;;;;23.24;75.28;100686.69;5110198;27;20487;-78
2021/08/10 10:36:15;;;;;;;3.67;0.98;;;;;;;23.40;73.07;100681.75;5090657;27;20100;-74
2021/08/10 10:39:01;;;;;;;3.05;1.10;;;;;;;23.52;71.13;100674.25;5118342;27;20023;-80
2021/08/10 10:41:47;;;;;;;3.20;1.10;;;;;;;23.64;73.95;100674.84;5105940;27;20497;-68
2021/08/10 10:44:41;;;;;;;3.35;1.17;;;;;;;23.85;74.28;100673.63;5105292;27;20066;-69
2021/08/10 10:47:30;;;;;;;2.05;0.80;;;;;;;24.07;73.47;100669.91;5109181;27;20100;-69
2021/08/10 10:50:17;;;;;;;3.83;0.93;;;;;;;24.30;73.95;100669.81;5115730;27;20043;-68
2021/08/10 10:53:07;;;;;;;1.15;0.50;;;;;;;24.56;72.49;100665.31;5108550;27;20045;-68
2021/08/10 10:55:52;;;;;;;2.15;0.90;;;;;;;24.80;71.18;100671.72;5101339;28;20050;-68
2021/08/10 10:58:38;;;;;;;2.53;0.85;;;;;;;25.06;70.68;100665.91;5105302;27;20411;-68
2021/08/10 11:01:29;;;;;;;1.67;0.60;;;;;;;25.27;69.79;100676.75;5079692;28;20108;-68
2021/08/10 11:04:15;;;;;;;1.13;0.68;;;;;;;25.46;69.22;100667.16;5108908;27;20031;-68
2021/08/10 11:07:01;;;;;;;1.70;0.60;;;;;;;25.64;68.34;100664.50;5112367;28;20373;-68
2021/08/10 11:09:49;;;;;;;2.40;0.73;;;;;;;25.81;68.00;100671.53;5102131;28;20130;-68
2021/08/10 11:12:44;;;;;;;1.00;0.50;;;;;;;25.92;66.69;100658.22;5113206;28;20111;-68
2021/08/10 11:15:45;;;;;;;1.88;0.77;;;;;;;26.02;67.65;100665.19;5099598;27;20059;-68
2021/08/10 11:18:33;;;;;;;1.13;0.60;;;;;;;26.09;66.86;100668.09;5113287;28;20061;-68
2021/08/10 11:21:20;;;;;;;3.00;0.60;;;;;;;26.14;66.30;100667.72;5085115;27;20062;-68
2021/08/10 11:24:09;;;;;;;0.80;0.50;;;;;;;26.18;66.33;100673.44;5087320;28;20065;-68
2021/08/10 11:26:55;;;;;;;0.80;0.40;;;;;;;26.20;65.89;100666.13;5086894;28;20042;-68
2021/08/10 11:29:42;;;;;;;1.77;0.52;;;;;;;26.30;65.10;100681.66;5078585;28;20144;-68
2021/08/10 11:32:45;;;;;;;2.00;0.40;;;;;;;26.31;64.56;100677.59;5100333;28;20071;-68
2021/08/10 11:35:39;;;;;;;1.30;0.50;;;;;;;26.34;64.87;100673.94;5084207;28;20040;-77
2021/08/10 11:38:24;;;;;;;1.65;1.00;;;;;;;26.40;65.01;100668.69;5089318;28;20111;-78
2021/08/10 11:41:37;;;;;;;1.73;0.70;;;;;;;26.44;65.35;100676.03;5086604;28;20039;-69
2021/08/10 11:44:23;;;;;;;0.70;0.32;;;;;;;26.45;66.24;100666.28;5097346;28;20421;-70
2021/08/10 11:47:11;;;;;;;0.43;0.30;;;;;;;26.52;64.79;100668.38;5074636;28;20562;-71
2021/08/10 11:49:57;;;;;;;0.50;0.20;;;;;;;26.57;64.93;100673.69;5095317;27;20541;-71
2021/08/10 11:52:44;;;;;;;1.38;0.20;;;;;;;26.66;64.57;100679.00;5106395;28;20073;-71
2021/08/10 11:55:32;;;;;;;0.82;0.30;;;;;;;26.78;63.93;100681.53;5071846;28;20048;-70
2021/08/10 11:58:17;;;;;;;1.30;0.40;;;;;;;26.93;63.80;100674.63;5056096;28;20420;-70
2021/08/10 12:01:04;;;;;;;1.40;0.30;;;;;;;27.14;63.11;100673.09;5083093;28;20466;-71
2021/08/10 12:03:49;;;;;;;3.00;0.50;;;;;;;27.34;62.62;100677.22;5083862;28;20088;-71
2021/08/10 12:06:35;;;;;;;1.27;0.30;;;;;;;27.53;62.28;100672.34;5079032;28;20032;-71
2021/08/10 12:09:22;;;;;;;3.03;0.30;;;;;;;27.71;61.21;100678.88;5066272;28;20028;-71
2021/08/10 12:12:10;;;;;;;0.95;0.40;;;;;;;27.89;61.34;100676.06;5066169;28;20185;-71
2021/08/10 12:14:56;;;;;;;0.70;0.40;;;;;;;28.06;60.77;100680.13;5074301;28;20040;-71
2021/08/10 12:17:54;;;;;;;1.23;0.30;;;;;;;28.19;58.41;100669.88;5093275;28;20035;-71
2021/08/10 12:20:40;;;;;;;2.05;0.47;;;;;;;28.31;58.28;100673.53;5070776;28;20111;-71
2021/08/10 12:23:28;;;;;;;0.50;0.30;;;;;;;28.40;57.98;100671.88;5082921;28;20036;-71
2021/08/10 12:26:16;;;;;;;2.55;0.20;;;;;;;28.47;57.63;100673.91;5093663;28;20044;-71
2021/08/10 12:29:02;;;;;;;0.90;0.30;;;;;;;28.57;57.55;100675.13;5077499;28;20032;-71
2021/08/10 12:31:47;;;;;;;0.80;0.30;;;;;;;28.63;57.95;100679.16;5095043;28;20032;-70
2021/08/10 12:34:37;;;;;;;0.40;0.20;;;;;;;28.68;57.00;100673.84;5088358;28;20047;-70
2021/08/10 12:37:30;;;;;;;1.15;0.25;;;;;;;28.77;56.69;100669.72;5076127;28;20032;-70
2021/08/10 12:40:17;;;;;;;1.05;0.30;;;;;;;28.76;56.32;100677.50;5078042;28;20040;-70
2021/08/10 12:43:03;;;;;;;1.02;0.35;;;;;;;28.80;55.81;100674.59;5068638;28;20039;-70
2021/08/10 12:45:49;;;;;;;0.80;0.30;;;;;;;28.78;54.59;100671.34;5051568;28;20076;-70
2021/08/10 12:48:35;;;;;;;1.88;0.35;;;;;;;28.78;54.72;100671.34;5067293;28;20040;-70
2021/08/10 12:51:22;;;;;;;1.85;0.28;;;;;;;28.83;55.15;100668.06;5080033;28;20115;-70
2021/08/10 12:54:11;;;;;;;0.90;0.30;;;;;;;28.88;55.93;100673.34;5053562;28;20036;-71
2021/08/10 12:56:57;;;;;;;0.63;0.20;;;;;;;28.86;55.80;100673.78;5107536;28;20123;-71